sensor_id;sensor_type;location;lat;lon;timestamp;temperature;humidity
31731;DHT22;18310;55.586;12.286;2022-12-08T00:00:51;0.50;70.30
31731;DHT22;18310;55.586;12.286;2022-12-08T00:03:56;0.50;70.30
31731;DHT22;18310;55.586;12.286;2022-12-08T00:07:01;0.50;70.00
31731;DHT22;18310;55.586;12.286;2022-12-08T00:10:22;0.50;70.30
31731;DHT22;18310;55.586;12.286;2022-12-08T00:13:45;0.50;70.30
31731;DHT22;18310;55.586;12.286;2022-12-08T00:16:48;0.50;70.00
31731;DHT22;18310;55.586;12.286;2022-12-08T00:19:52;0.50;69.90
31731;DHT22;18310;55.586;12.286;2022-12-08T00:22:56;0.30;69.50
31731;DHT22;18310;55.586;12.286;2022-12-08T00:26:01;1.00;69.40
31731;DHT22;18310;55.586;12.286;2022-12-08T00:29:05;0.40;68.70
31731;DHT22;18310;55.586;12.286;2022-12-08T00:32:13;0.40;68.80
31731;DHT22;18310;55.586;12.286;2022-12-08T00:35:16;0.30;69.00
31731;DHT22;18310;55.586;12.286;2022-12-08T00:38:21;0.30;69.10
31731;DHT22;18310;55.586;12.286;2022-12-08T00:41:26;0.20;69.40
31731;DHT22;18310;55.586;12.286;2022-12-08T00:44:46;0.20;69.50
31731;DHT22;18310;55.586;12.286;2022-12-08T00:47:49;0.20;69.50
31731;DHT22;18310;55.586;12.286;2022-12-08T00:50:52;0.20;70.10
31731;DHT22;18310;55.586;12.286;2022-12-08T00:53:57;-0.40;69.30
31731;DHT22;18310;55.586;12.286;2022-12-08T00:57:00;-0.10;69.60
31731;DHT22;18310;55.586;12.286;2022-12-08T01:00:04;0.20;69.60
31731;DHT22;18310;55.586;12.286;2022-12-08T01:03:08;0.20;69.70
31731;DHT22;18310;55.586;12.286;2022-12-08T01:06:12;0.20;69.70
31731;DHT22;18310;55.586;12.286;2022-12-08T01:09:17;0.20;69.50
31731;DHT22;18310;55.586;12.286;2022-12-08T01:12:20;0.20;68.90
31731;DHT22;18310;55.586;12.286;2022-12-08T01:15:23;0.10;68.40
31731;DHT22;18310;55.586;12.286;2022-12-08T01:18:27;0.10;68.70
31731;DHT22;18310;55.586;12.286;2022-12-08T01:21:30;0.00;68.10
31731;DHT22;18310;55.586;12.286;2022-12-08T01:24:35;-0.40;68.00
31731;DHT22;18310;55.586;12.286;2022-12-08T01:27:38;-0.20;68.60
31731;DHT22;18310;55.586;12.286;2022-12-08T01:30:41;-0.50;69.00
31731;DHT22;18310;55.586;12.286;2022-12-08T01:33:45;-0.20;69.50
31731;DHT22;18310;55.586;12.286;2022-12-08T01:36:49;0.60;70.00
31731;DHT22;18310;55.586;12.286;2022-12-08T01:39:54;-0.20;69.60
31731;DHT22;18310;55.586;12.286;2022-12-08T01:42:57;-0.10;69.70
31731;DHT22;18310;55.586;12.286;2022-12-08T01:46:00;-0.10;69.70
31731;DHT22;18310;55.586;12.286;2022-12-08T01:49:05;0.00;69.40
31731;DHT22;18310;55.586;12.286;2022-12-08T01:52:13;-0.10;68.70
31731;DHT22;18310;55.586;12.286;2022-12-08T01:55:23;-0.10;68.40
31731;DHT22;18310;55.586;12.286;2022-12-08T01:58:30;-0.10;68.30
31731;DHT22;18310;55.586;12.286;2022-12-08T02:01:36;-0.90;68.10
31731;DHT22;18310;55.586;12.286;2022-12-08T02:04:40;-0.20;68.80
31731;DHT22;18310;55.586;12.286;2022-12-08T02:07:43;-0.20;68.90
31731;DHT22;18310;55.586;12.286;2022-12-08T02:10:50;-0.20;69.10
31731;DHT22;18310;55.586;12.286;2022-12-08T02:13:55;-0.10;69.20
31731;DHT22;18310;55.586;12.286;2022-12-08T02:17:04;0.10;69.60
31731;DHT22;18310;55.586;12.286;2022-12-08T02:20:25;0.50;69.80
31731;DHT22;18310;55.586;12.286;2022-12-08T02:23:44;-0.10;69.10
31731;DHT22;18310;55.586;12.286;2022-12-08T02:27:21;0.40;68.90
31731;DHT22;18310;55.586;12.286;2022-12-08T02:30:37;1.00;68.80
31731;DHT22;18310;55.586;12.286;2022-12-08T02:34:18;1.30;69.00
31731;DHT22;18310;55.586;12.286;2022-12-08T02:37:31;-0.30;68.40
31731;DHT22;18310;55.586;12.286;2022-12-08T02:40:43;0.20;69.20
31731;DHT22;18310;55.586;12.286;2022-12-08T02:43:58;1.00;69.70
31731;DHT22;18310;55.586;12.286;2022-12-08T02:47:09;-0.30;69.10
31731;DHT22;18310;55.586;12.286;2022-12-08T02:50:17;-0.30;69.00
31731;DHT22;18310;55.586;12.286;2022-12-08T02:53:20;-0.30;69.20
31731;DHT22;18310;55.586;12.286;2022-12-08T02:56:39;-0.30;69.20
31731;DHT22;18310;55.586;12.286;2022-12-08T03:00:03;-0.30;68.80
31731;DHT22;18310;55.586;12.286;2022-12-08T03:03:16;-0.20;68.90
31731;DHT22;18310;55.586;12.286;2022-12-08T03:06:33;-0.30;68.50
31731;DHT22;18310;55.586;12.286;2022-12-08T03:09:43;-0.30;68.20
31731;DHT22;18310;55.586;12.286;2022-12-08T03:12:53;-0.30;68.30
31731;DHT22;18310;55.586;12.286;2022-12-08T03:16:03;-0.40;68.40
31731;DHT22;18310;55.586;12.286;2022-12-08T03:19:15;-0.40;68.50
31731;DHT22;18310;55.586;12.286;2022-12-08T03:22:24;0.20;68.70
31731;DHT22;18310;55.586;12.286;2022-12-08T03:25:30;-0.50;67.90
31731;DHT22;18310;55.586;12.286;2022-12-08T03:28:38;-0.50;68.10
31731;DHT22;18310;55.586;12.286;2022-12-08T03:31:47;-0.20;68.20
31731;DHT22;18310;55.586;12.286;2022-12-08T03:34:52;-0.60;67.40
31731;DHT22;18310;55.586;12.286;2022-12-08T03:38:02;-1.20;67.20
31731;DHT22;18310;55.586;12.286;2022-12-08T03:41:07;-0.80;67.30
31731;DHT22;18310;55.586;12.286;2022-12-08T03:44:19;-0.80;67.90
31731;DHT22;18310;55.586;12.286;2022-12-08T03:47:23;-0.80;68.40
31731;DHT22;18310;55.586;12.286;2022-12-08T03:50:26;-0.80;68.70
31731;DHT22;18310;55.586;12.286;2022-12-08T03:53:30;-0.70;69.00
31731;DHT22;18310;55.586;12.286;2022-12-08T03:56:35;-0.50;69.40
31731;DHT22;18310;55.586;12.286;2022-12-08T03:59:39;0.10;69.80
31731;DHT22;18310;55.586;12.286;2022-12-08T04:02:43;-2.00;68.40
31731;DHT22;18310;55.586;12.286;2022-12-08T04:05:46;1.00;69.80
31731;DHT22;18310;55.586;12.286;2022-12-08T04:08:51;-0.40;68.40
31731;DHT22;18310;55.586;12.286;2022-12-08T04:11:54;-0.40;68.40
31731;DHT22;18310;55.586;12.286;2022-12-08T04:14:57;-0.30;68.50
31731;DHT22;18310;55.586;12.286;2022-12-08T04:18:00;-0.30;68.60
31731;DHT22;18310;55.586;12.286;2022-12-08T04:21:03;-0.30;68.50
31731;DHT22;18310;55.586;12.286;2022-12-08T04:24:08;-0.30;68.20
31731;DHT22;18310;55.586;12.286;2022-12-08T04:27:11;-0.20;68.20
31731;DHT22;18310;55.586;12.286;2022-12-08T04:30:14;-0.30;68.50
31731;DHT22;18310;55.586;12.286;2022-12-08T04:33:17;-0.30;68.40
31731;DHT22;18310;55.586;12.286;2022-12-08T04:36:21;-0.30;68.20
31731;DHT22;18310;55.586;12.286;2022-12-08T04:39:25;-0.30;68.30
31731;DHT22;18310;55.586;12.286;2022-12-08T04:42:28;0.80;68.70
31731;DHT22;18310;55.586;12.286;2022-12-08T04:45:31;-1.50;67.60
31731;DHT22;18310;55.586;12.286;2022-12-08T04:48:36;-0.30;68.10
31731;DHT22;18310;55.586;12.286;2022-12-08T04:51:40;-0.30;67.80
31731;DHT22;18310;55.586;12.286;2022-12-08T04:54:44;0.70;68.30
31731;DHT22;18310;55.586;12.286;2022-12-08T04:57:47;-0.30;67.60
31731;DHT22;18310;55.586;12.286;2022-12-08T05:00:50;-0.30;67.80
31731;DHT22;18310;55.586;12.286;2022-12-08T05:03:53;-1.60;66.80
31731;DHT22;18310;55.586;12.286;2022-12-08T05:06:56;-0.40;67.30
31731;DHT22;18310;55.586;12.286;2022-12-08T05:10:01;-0.50;67.20
31731;DHT22;18310;55.586;12.286;2022-12-08T05:13:05;-0.60;67.30
31731;DHT22;18310;55.586;12.286;2022-12-08T05:16:09;-0.70;67.50
31731;DHT22;18310;55.586;12.286;2022-12-08T05:19:15;-0.70;67.80
31731;DHT22;18310;55.586;12.286;2022-12-08T05:22:18;0.00;68.30
31731;DHT22;18310;55.586;12.286;2022-12-08T05:25:22;-0.70;67.90
31731;DHT22;18310;55.586;12.286;2022-12-08T05:28:25;-0.70;67.80
31731;DHT22;18310;55.586;12.286;2022-12-08T05:31:45;-0.70;68.10
31731;DHT22;18310;55.586;12.286;2022-12-08T05:34:48;-0.70;68.50
31731;DHT22;18310;55.586;12.286;2022-12-08T05:37:51;-0.80;68.50
31731;DHT22;18310;55.586;12.286;2022-12-08T05:40:55;-1.80;67.80
31731;DHT22;18310;55.586;12.286;2022-12-08T05:43:59;-0.70;68.30
31731;DHT22;18310;55.586;12.286;2022-12-08T05:47:02;-1.00;68.10
31731;DHT22;18310;55.586;12.286;2022-12-08T05:50:06;0.60;68.80
31731;DHT22;18310;55.586;12.286;2022-12-08T05:53:09;-0.60;67.80
31731;DHT22;18310;55.586;12.286;2022-12-08T05:56:14;-0.70;67.70
31731;DHT22;18310;55.586;12.286;2022-12-08T05:59:17;-0.70;67.30
31731;DHT22;18310;55.586;12.286;2022-12-08T06:02:20;-0.70;67.30
31731;DHT22;18310;55.586;12.286;2022-12-08T06:05:23;-0.70;67.40
31731;DHT22;18310;55.586;12.286;2022-12-08T06:08:26;-1.40;67.00
31731;DHT22;18310;55.586;12.286;2022-12-08T06:11:31;0.00;67.60
31731;DHT22;18310;55.586;12.286;2022-12-08T06:14:35;-0.80;66.80
31731;DHT22;18310;55.586;12.286;2022-12-08T06:17:39;-0.80;67.20
31731;DHT22;18310;55.586;12.286;2022-12-08T06:20:43;-1.30;67.00
31731;DHT22;18310;55.586;12.286;2022-12-08T06:23:47;-0.90;67.40
31731;DHT22;18310;55.586;12.286;2022-12-08T06:26:53;-0.90;67.30
31731;DHT22;18310;55.586;12.286;2022-12-08T06:29:55;-0.90;67.30
31731;DHT22;18310;55.586;12.286;2022-12-08T06:32:59;-0.90;67.20
31731;DHT22;18310;55.586;12.286;2022-12-08T06:36:02;-0.90;66.90
31731;DHT22;18310;55.586;12.286;2022-12-08T06:39:05;-0.90;66.50
31731;DHT22;18310;55.586;12.286;2022-12-08T06:42:09;-1.00;66.50
31731;DHT22;18310;55.586;12.286;2022-12-08T06:45:30;-1.00;66.70
31731;DHT22;18310;55.586;12.286;2022-12-08T06:48:33;-1.00;67.10
31731;DHT22;18310;55.586;12.286;2022-12-08T06:51:37;-1.00;67.40
31731;DHT22;18310;55.586;12.286;2022-12-08T06:54:40;-1.00;67.40
31731;DHT22;18310;55.586;12.286;2022-12-08T06:57:44;-1.00;67.30
31731;DHT22;18310;55.586;12.286;2022-12-08T07:00:47;-1.10;67.40
31731;DHT22;18310;55.586;12.286;2022-12-08T07:03:50;-1.00;67.70
31731;DHT22;18310;55.586;12.286;2022-12-08T07:06:53;-0.60;68.00
31731;DHT22;18310;55.586;12.286;2022-12-08T07:09:56;-1.00;67.60
31731;DHT22;18310;55.586;12.286;2022-12-08T07:13:01;-1.00;67.60
31731;DHT22;18310;55.586;12.286;2022-12-08T07:16:06;-1.00;67.50
31731;DHT22;18310;55.586;12.286;2022-12-08T07:19:10;-1.00;67.80
31731;DHT22;18310;55.586;12.286;2022-12-08T07:22:13;-1.10;68.10
31731;DHT22;18310;55.586;12.286;2022-12-08T07:25:16;-0.90;68.00
31731;DHT22;18310;55.586;12.286;2022-12-08T07:28:21;-0.90;67.90
31731;DHT22;18310;55.586;12.286;2022-12-08T07:31:24;-0.90;67.60
31731;DHT22;18310;55.586;12.286;2022-12-08T07:34:29;-0.90;67.30
31731;DHT22;18310;55.586;12.286;2022-12-08T07:37:32;-0.90;67.00
31731;DHT22;18310;55.586;12.286;2022-12-08T07:40:37;-0.90;66.70
31731;DHT22;18310;55.586;12.286;2022-12-08T07:43:42;-1.00;66.60
31731;DHT22;18310;55.586;12.286;2022-12-08T07:46:46;-1.00;66.90
31731;DHT22;18310;55.586;12.286;2022-12-08T07:49:49;-1.10;67.30
31731;DHT22;18310;55.586;12.286;2022-12-08T07:52:52;0.10;68.10
31731;DHT22;18310;55.586;12.286;2022-12-08T07:55:55;-1.00;67.80
31731;DHT22;18310;55.586;12.286;2022-12-08T07:59:00;-1.00;67.90
31731;DHT22;18310;55.586;12.286;2022-12-08T08:02:03;-1.00;67.80
31731;DHT22;18310;55.586;12.286;2022-12-08T08:05:25;-0.90;67.70
31731;DHT22;18310;55.586;12.286;2022-12-08T08:08:28;-0.90;67.30
31731;DHT22;18310;55.586;12.286;2022-12-08T08:11:31;-0.90;67.00
31731;DHT22;18310;55.586;12.286;2022-12-08T08:14:36;-0.90;66.90
31731;DHT22;18310;55.586;12.286;2022-12-08T08:17:39;-0.90;66.80
31731;DHT22;18310;55.586;12.286;2022-12-08T08:20:42;-0.90;66.90
31731;DHT22;18310;55.586;12.286;2022-12-08T08:23:45;0.50;67.30
31731;DHT22;18310;55.586;12.286;2022-12-08T08:26:48;-0.90;66.20
31731;DHT22;18310;55.586;12.286;2022-12-08T08:29:55;-0.90;66.30
31731;DHT22;18310;55.586;12.286;2022-12-08T08:32:59;-1.00;66.60
31731;DHT22;18310;55.586;12.286;2022-12-08T08:36:05;-0.80;67.30
31731;DHT22;18310;55.586;12.286;2022-12-08T08:39:09;-0.80;67.50
31731;DHT22;18310;55.586;12.286;2022-12-08T08:42:13;-0.90;67.60
31731;DHT22;18310;55.586;12.286;2022-12-08T08:45:17;-0.80;67.70
31731;DHT22;18310;55.586;12.286;2022-12-08T08:48:20;-0.80;67.80
31731;DHT22;18310;55.586;12.286;2022-12-08T08:51:23;-0.70;67.80
31731;DHT22;18310;55.586;12.286;2022-12-08T08:54:28;-0.60;68.00
31731;DHT22;18310;55.586;12.286;2022-12-08T08:57:31;-0.50;68.40
31731;DHT22;18310;55.586;12.286;2022-12-08T09:00:35;-0.50;68.20
31731;DHT22;18310;55.586;12.286;2022-12-08T09:03:38;-0.40;68.00
31731;DHT22;18310;55.586;12.286;2022-12-08T09:06:42;-0.30;67.80
31731;DHT22;18310;55.586;12.286;2022-12-08T09:09:45;-1.10;67.30
31731;DHT22;18310;55.586;12.286;2022-12-08T09:12:48;-0.20;67.90
31731;DHT22;18310;55.586;12.286;2022-12-08T09:15:53;-0.10;68.20
31731;DHT22;18310;55.586;12.286;2022-12-08T09:18:56;0.00;68.50
31731;DHT22;18310;55.586;12.286;2022-12-08T09:21:59;0.90;69.10
31731;DHT22;18310;55.586;12.286;2022-12-08T09:25:03;0.20;68.40
31731;DHT22;18310;55.586;12.286;2022-12-08T09:28:06;0.30;68.30
31731;DHT22;18310;55.586;12.286;2022-12-08T09:31:11;0.30;68.30
31731;DHT22;18310;55.586;12.286;2022-12-08T09:34:15;0.40;68.20
31731;DHT22;18310;55.586;12.286;2022-12-08T09:37:18;0.60;68.30
31731;DHT22;18310;55.586;12.286;2022-12-08T09:40:23;0.60;68.50
31731;DHT22;18310;55.586;12.286;2022-12-08T09:43:47;0.70;68.50
31731;DHT22;18310;55.586;12.286;2022-12-08T09:47:02;1.40;68.90
31731;DHT22;18310;55.586;12.286;2022-12-08T09:50:13;0.90;68.60
31731;DHT22;18310;55.586;12.286;2022-12-08T09:53:23;1.00;68.50
31731;DHT22;18310;55.586;12.286;2022-12-08T09:56:37;2.10;68.90
31731;DHT22;18310;55.586;12.286;2022-12-08T09:59:44;1.30;68.30
31731;DHT22;18310;55.586;12.286;2022-12-08T10:02:52;1.40;68.20
31731;DHT22;18310;55.586;12.286;2022-12-08T10:06:03;1.40;68.20
31731;DHT22;18310;55.586;12.286;2022-12-08T10:09:20;1.50;68.10
31731;DHT22;18310;55.586;12.286;2022-12-08T10:12:38;1.60;67.80
31731;DHT22;18310;55.586;12.286;2022-12-08T10:15:48;1.70;67.90
31731;DHT22;18310;55.586;12.286;2022-12-08T10:19:11;1.60;67.90
31731;DHT22;18310;55.586;12.286;2022-12-08T10:22:20;1.80;67.70
31731;DHT22;18310;55.586;12.286;2022-12-08T10:25:27;2.90;68.50
31731;DHT22;18310;55.586;12.286;2022-12-08T10:28:34;2.00;68.00
31731;DHT22;18310;55.586;12.286;2022-12-08T10:31:45;2.10;68.20
31731;DHT22;18310;55.586;12.286;2022-12-08T10:35:02;2.20;68.50
31731;DHT22;18310;55.586;12.286;2022-12-08T10:38:16;2.30;68.30
31731;DHT22;18310;55.586;12.286;2022-12-08T10:41:23;2.40;68.30
31731;DHT22;18310;55.586;12.286;2022-12-08T10:44:27;3.60;69.00
31731;DHT22;18310;55.586;12.286;2022-12-08T10:47:33;2.60;68.30
31731;DHT22;18310;55.586;12.286;2022-12-08T10:50:43;2.70;67.80
31731;DHT22;18310;55.586;12.286;2022-12-08T10:53:47;3.40;68.40
31731;DHT22;18310;55.586;12.286;2022-12-08T10:56:53;2.90;68.10
31731;DHT22;18310;55.586;12.286;2022-12-08T10:59:57;3.00;68.00
31731;DHT22;18310;55.586;12.286;2022-12-08T11:03:02;3.10;67.60
31731;DHT22;18310;55.586;12.286;2022-12-08T11:06:14;3.10;67.30
31731;DHT22;18310;55.586;12.286;2022-12-08T11:09:30;3.20;66.90
31731;DHT22;18310;55.586;12.286;2022-12-08T11:12:43;4.10;67.20
31731;DHT22;18310;55.586;12.286;2022-12-08T11:15:46;3.30;66.50
31731;DHT22;18310;55.586;12.286;2022-12-08T11:18:55;3.40;66.70
31731;DHT22;18310;55.586;12.286;2022-12-08T11:22:00;3.40;66.00
31731;DHT22;18310;55.586;12.286;2022-12-08T11:25:09;3.50;66.10
31731;DHT22;18310;55.586;12.286;2022-12-08T11:28:13;3.50;65.70
31731;DHT22;18310;55.586;12.286;2022-12-08T11:31:28;3.60;66.00
31731;DHT22;18310;55.586;12.286;2022-12-08T11:34:39;3.60;65.30
31731;DHT22;18310;55.586;12.286;2022-12-08T11:37:47;3.70;65.60
31731;DHT22;18310;55.586;12.286;2022-12-08T11:40:53;3.70;65.50
31731;DHT22;18310;55.586;12.286;2022-12-08T11:44:04;3.70;65.30
31731;DHT22;18310;55.586;12.286;2022-12-08T11:47:19;3.80;65.00
31731;DHT22;18310;55.586;12.286;2022-12-08T11:50:28;4.30;65.40
31731;DHT22;18310;55.586;12.286;2022-12-08T11:53:43;3.90;65.20
31731;DHT22;18310;55.586;12.286;2022-12-08T11:56:55;3.90;64.90
31731;DHT22;18310;55.586;12.286;2022-12-08T12:00:00;4.00;65.20
31731;DHT22;18310;55.586;12.286;2022-12-08T12:03:07;4.00;65.30
31731;DHT22;18310;55.586;12.286;2022-12-08T12:06:48;4.00;65.10
31731;DHT22;18310;55.586;12.286;2022-12-08T12:10:23;4.00;63.80
31731;DHT22;18310;55.586;12.286;2022-12-08T12:13:53;4.80;64.60
31731;DHT22;18310;55.586;12.286;2022-12-08T12:17:06;4.10;64.00
31731;DHT22;18310;55.586;12.286;2022-12-08T12:20:31;4.10;64.40
31731;DHT22;18310;55.586;12.286;2022-12-08T12:23:40;4.10;63.70
31731;DHT22;18310;55.586;12.286;2022-12-08T12:26:55;4.20;63.60
31731;DHT22;18310;55.586;12.286;2022-12-08T12:30:02;4.10;62.80
31731;DHT22;18310;55.586;12.286;2022-12-08T12:33:12;4.20;63.20
31731;DHT22;18310;55.586;12.286;2022-12-08T12:36:18;4.20;62.80
31731;DHT22;18310;55.586;12.286;2022-12-08T12:39:25;4.20;63.10
31731;DHT22;18310;55.586;12.286;2022-12-08T12:42:39;4.20;62.70
31731;DHT22;18310;55.586;12.286;2022-12-08T12:45:44;4.20;62.10
31731;DHT22;18310;55.586;12.286;2022-12-08T12:48:47;4.20;62.70
31731;DHT22;18310;55.586;12.286;2022-12-08T12:51:53;4.20;62.50
31731;DHT22;18310;55.586;12.286;2022-12-08T12:55:19;3.10;61.60
31731;DHT22;18310;55.586;12.286;2022-12-08T12:58:36;5.00;61.40
31731;DHT22;18310;55.586;12.286;2022-12-08T13:01:54;4.90;61.80
31731;DHT22;18310;55.586;12.286;2022-12-08T13:05:01;4.30;61.80
31731;DHT22;18310;55.586;12.286;2022-12-08T13:08:19;4.40;62.60
31731;DHT22;18310;55.586;12.286;2022-12-08T13:11:25;4.40;61.40
31731;DHT22;18310;55.586;12.286;2022-12-08T13:14:34;4.00;61.60
31731;DHT22;18310;55.586;12.286;2022-12-08T13:17:43;4.40;60.90
31731;DHT22;18310;55.586;12.286;2022-12-08T13:20:52;4.40;60.80
31731;DHT22;18310;55.586;12.286;2022-12-08T13:24:13;5.30;61.40
31731;DHT22;18310;55.586;12.286;2022-12-08T13:27:32;4.60;59.90
31731;DHT22;18310;55.586;12.286;2022-12-08T13:30:43;4.30;60.40
31731;DHT22;18310;55.586;12.286;2022-12-08T13:33:47;4.20;60.00
31731;DHT22;18310;55.586;12.286;2022-12-08T13:36:59;5.10;61.10
31731;DHT22;18310;55.586;12.286;2022-12-08T13:40:09;4.10;60.10
31731;DHT22;18310;55.586;12.286;2022-12-08T13:43:27;4.10;60.30
31731;DHT22;18310;55.586;12.286;2022-12-08T13:46:56;4.00;60.00
31731;DHT22;18310;55.586;12.286;2022-12-08T13:50:24;3.90;60.20
31731;DHT22;18310;55.586;12.286;2022-12-08T13:53:58;3.80;60.30
31731;DHT22;18310;55.586;12.286;2022-12-08T13:57:27;3.80;60.20
31731;DHT22;18310;55.586;12.286;2022-12-08T14:00:33;3.70;60.40
31731;DHT22;18310;55.586;12.286;2022-12-08T14:03:47;3.60;60.40
31731;DHT22;18310;55.586;12.286;2022-12-08T14:07:13;3.60;59.70
31731;DHT22;18310;55.586;12.286;2022-12-08T14:10:19;3.50;60.30
31731;DHT22;18310;55.586;12.286;2022-12-08T14:13:25;3.50;60.10
31731;DHT22;18310;55.586;12.286;2022-12-08T14:16:32;3.40;60.20
31731;DHT22;18310;55.586;12.286;2022-12-08T14:19:43;3.30;60.00
31731;DHT22;18310;55.586;12.286;2022-12-08T14:22:54;3.30;60.10
31731;DHT22;18310;55.586;12.286;2022-12-08T14:26:00;3.20;60.30
31731;DHT22;18310;55.586;12.286;2022-12-08T14:29:06;3.20;60.40
31731;DHT22;18310;55.586;12.286;2022-12-08T14:32:25;4.20;60.90
31731;DHT22;18310;55.586;12.286;2022-12-08T14:35:33;2.40;59.60
31731;DHT22;18310;55.586;12.286;2022-12-08T14:38:38;3.00;60.40
31731;DHT22;18310;55.586;12.286;2022-12-08T14:41:57;3.70;60.90
31731;DHT22;18310;55.586;12.286;2022-12-08T14:45:05;2.80;60.00
31731;DHT22;18310;55.586;12.286;2022-12-08T14:48:20;2.70;60.60
31731;DHT22;18310;55.586;12.286;2022-12-08T14:51:29;2.60;60.40
31731;DHT22;18310;55.586;12.286;2022-12-08T14:54:33;2.50;60.60
31731;DHT22;18310;55.586;12.286;2022-12-08T14:57:37;2.50;60.80
31731;DHT22;18310;55.586;12.286;2022-12-08T15:00:44;2.40;60.90
31731;DHT22;18310;55.586;12.286;2022-12-08T15:03:49;2.30;60.90
31731;DHT22;18310;55.586;12.286;2022-12-08T15:06:59;2.20;61.10
31731;DHT22;18310;55.586;12.286;2022-12-08T15:10:20;2.20;61.30
31731;DHT22;18310;55.586;12.286;2022-12-08T15:13:28;2.10;60.90
31731;DHT22;18310;55.586;12.286;2022-12-08T15:16:37;2.00;61.40
31731;DHT22;18310;55.586;12.286;2022-12-08T15:19:41;2.00;61.20
31731;DHT22;18310;55.586;12.286;2022-12-08T15:22:46;1.90;61.50
31731;DHT22;18310;55.586;12.286;2022-12-08T15:25:49;1.80;61.50
31731;DHT22;18310;55.586;12.286;2022-12-08T15:28:53;1.80;61.80
31731;DHT22;18310;55.586;12.286;2022-12-08T15:32:00;1.70;61.80
31731;DHT22;18310;55.586;12.286;2022-12-08T15:35:04;1.70;61.80
31731;DHT22;18310;55.586;12.286;2022-12-08T15:38:16;1.60;61.90
31731;DHT22;18310;55.586;12.286;2022-12-08T15:41:25;1.60;62.40
31731;DHT22;18310;55.586;12.286;2022-12-08T15:44:28;1.50;62.60
31731;DHT22;18310;55.586;12.286;2022-12-08T15:47:33;1.50;62.60
31731;DHT22;18310;55.586;12.286;2022-12-08T15:50:36;1.40;62.70
31731;DHT22;18310;55.586;12.286;2022-12-08T15:53:41;0.30;62.20
31731;DHT22;18310;55.586;12.286;2022-12-08T15:56:46;1.30;62.70
31731;DHT22;18310;55.586;12.286;2022-12-08T16:00:25;1.30;62.80
31731;DHT22;18310;55.586;12.286;2022-12-08T16:03:50;1.20;62.90
31731;DHT22;18310;55.586;12.286;2022-12-08T16:07:20;1.10;62.90
31731;DHT22;18310;55.586;12.286;2022-12-08T16:10:30;2.10;64.00
31731;DHT22;18310;55.586;12.286;2022-12-08T16:13:53;1.00;62.90
31731;DHT22;18310;55.586;12.286;2022-12-08T16:17:12;0.90;62.90
31731;DHT22;18310;55.586;12.286;2022-12-08T16:20:16;0.80;63.00
31731;DHT22;18310;55.586;12.286;2022-12-08T16:23:29;0.80;63.00
31731;DHT22;18310;55.586;12.286;2022-12-08T16:26:46;0.70;63.20
31731;DHT22;18310;55.586;12.286;2022-12-08T16:30:14;0.60;63.40
31731;DHT22;18310;55.586;12.286;2022-12-08T16:33:18;-0.60;62.90
31731;DHT22;18310;55.586;12.286;2022-12-08T16:36:21;0.50;63.70
31731;DHT22;18310;55.586;12.286;2022-12-08T16:39:24;2.00;64.70
31731;DHT22;18310;55.586;12.286;2022-12-08T16:42:30;0.40;63.90
31731;DHT22;18310;55.586;12.286;2022-12-08T16:45:49;0.30;64.00
31731;DHT22;18310;55.586;12.286;2022-12-08T16:48:53;0.00;64.00
31731;DHT22;18310;55.586;12.286;2022-12-08T16:51:57;0.20;64.30
31731;DHT22;18310;55.586;12.286;2022-12-08T16:55:00;1.20;65.00
31731;DHT22;18310;55.586;12.286;2022-12-08T16:58:05;0.80;64.80
31731;DHT22;18310;55.586;12.286;2022-12-08T17:01:10;0.10;64.50
31731;DHT22;18310;55.586;12.286;2022-12-08T17:04:13;0.10;64.60
31731;DHT22;18310;55.586;12.286;2022-12-08T17:07:32;0.00;64.60
31731;DHT22;18310;55.586;12.286;2022-12-08T17:10:37;0.50;65.10
31731;DHT22;18310;55.586;12.286;2022-12-08T17:13:42;0.00;65.00
31731;DHT22;18310;55.586;12.286;2022-12-08T17:16:45;1.00;65.70
31731;DHT22;18310;55.586;12.286;2022-12-08T17:19:49;-0.10;65.20
31731;DHT22;18310;55.586;12.286;2022-12-08T17:22:52;-0.10;65.40
31731;DHT22;18310;55.586;12.286;2022-12-08T17:25:57;-0.10;65.50
31731;DHT22;18310;55.586;12.286;2022-12-08T17:29:03;1.00;66.20
31731;DHT22;18310;55.586;12.286;2022-12-08T17:32:06;-0.60;65.30
31731;DHT22;18310;55.586;12.286;2022-12-08T17:35:09;-0.10;65.60
31731;DHT22;18310;55.586;12.286;2022-12-08T17:38:14;-0.10;65.70
31731;DHT22;18310;55.586;12.286;2022-12-08T17:41:17;-0.10;65.90
31731;DHT22;18310;55.586;12.286;2022-12-08T17:44:22;-0.10;65.90
31731;DHT22;18310;55.586;12.286;2022-12-08T17:47:26;-1.10;65.50
31731;DHT22;18310;55.586;12.286;2022-12-08T17:50:29;-0.20;66.00
31731;DHT22;18310;55.586;12.286;2022-12-08T17:53:32;-0.40;65.90
31731;DHT22;18310;55.586;12.286;2022-12-08T17:56:38;-1.30;65.40
31731;DHT22;18310;55.586;12.286;2022-12-08T17:59:42;-0.20;66.00
31731;DHT22;18310;55.586;12.286;2022-12-08T18:02:45;-0.20;66.00
31731;DHT22;18310;55.586;12.286;2022-12-08T18:05:48;-0.20;66.00
31731;DHT22;18310;55.586;12.286;2022-12-08T18:08:51;-0.30;65.80
31731;DHT22;18310;55.586;12.286;2022-12-08T18:11:54;-0.30;65.90
31731;DHT22;18310;55.586;12.286;2022-12-08T18:14:59;-0.30;65.90
31731;DHT22;18310;55.586;12.286;2022-12-08T18:18:02;-0.30;66.00
31731;DHT22;18310;55.586;12.286;2022-12-08T18:21:05;-0.40;66.10
31731;DHT22;18310;55.586;12.286;2022-12-08T18:24:16;-0.40;66.20
31731;DHT22;18310;55.586;12.286;2022-12-08T18:27:21;-0.40;66.40
31731;DHT22;18310;55.586;12.286;2022-12-08T18:30:26;-0.90;66.00
31731;DHT22;18310;55.586;12.286;2022-12-08T18:33:29;-0.40;66.70
31731;DHT22;18310;55.586;12.286;2022-12-08T18:36:32;-0.40;66.30
31731;DHT22;18310;55.586;12.286;2022-12-08T18:39:35;-0.40;66.30
31731;DHT22;18310;55.586;12.286;2022-12-08T18:42:39;-0.40;66.30
31731;DHT22;18310;55.586;12.286;2022-12-08T18:45:43;-0.40;66.40
31731;DHT22;18310;55.586;12.286;2022-12-08T18:48:48;1.00;67.20
31731;DHT22;18310;55.586;12.286;2022-12-08T18:51:52;1.00;67.20
31731;DHT22;18310;55.586;12.286;2022-12-08T18:54:55;-0.40;66.40
31731;DHT22;18310;55.586;12.286;2022-12-08T18:58:07;-1.00;66.00
31731;DHT22;18310;55.586;12.286;2022-12-08T19:01:13;1.00;67.10
31731;DHT22;18310;55.586;12.286;2022-12-08T19:04:16;-1.30;65.90
31731;DHT22;18310;55.586;12.286;2022-12-08T19:07:39;0.00;66.40
31731;DHT22;18310;55.586;12.286;2022-12-08T19:10:43;-0.40;66.20
31731;DHT22;18310;55.586;12.286;2022-12-08T19:13:47;-0.20;66.40
31731;DHT22;18310;55.586;12.286;2022-12-08T19:16:51;-0.40;66.40
31731;DHT22;18310;55.586;12.286;2022-12-08T19:19:54;-0.30;66.50
31731;DHT22;18310;55.586;12.286;2022-12-08T19:22:57;1.10;67.30
31731;DHT22;18310;55.586;12.286;2022-12-08T19:26:01;0.90;67.20
31731;DHT22;18310;55.586;12.286;2022-12-08T19:29:04;-0.30;66.50
31731;DHT22;18310;55.586;12.286;2022-12-08T19:32:09;-0.30;66.50
31731;DHT22;18310;55.586;12.286;2022-12-08T19:35:12;-0.30;66.50
31731;DHT22;18310;55.586;12.286;2022-12-08T19:38:15;-0.30;66.60